METAR AND TAF INFORMATION
METAR FOR VNKT
ADDS - METARS form results

(0448 UTC 26 February 2020)
Data provider http://aviationweather.gov/metar/data/
 
METAR text: VNKT 260420Z 11007KT 050V140 8000 FEW008 FEW025CB SCT030 BKN100 12/08 Q1019 NOSIG CB TO NE E SE S AND SW
Conditions at: VNKT (KATHMANDU INTL A, NP) observed 0420 UTC 26 February 2020
Temperature: 12.0°C (54°F)
Dewpoint: 8.0°C (46°F) [RH = 76%]
Pressure (altimeter): 30.09 inches Hg (1019.0 mb)
Winds: from the ESE (110 degrees) at 8 MPH (7 knots; 3.6 m/s)
Visibility: 5 miles ( 8 km)
Ceiling: 10000 feet AGL
Clouds: few clouds at 800 feet AGL
few clouds at 2500 feet AGL
scattered clouds at 3000 feet AGL
broken clouds at 10000 feet AGL
Weather: no significant weather observed at this time

METAR text: VNKT 260350Z 11006G16KT 070V150 8000 FEW008 FEW025CB SCT030 BKN100 11/08 Q1019 NOSIG CB TO S SW AND W
Conditions at: VNKT (KATHMANDU INTL A, NP) observed 0350 UTC 26 February 2020
Temperature: 11.0°C (52°F)
Dewpoint: 8.0°C (46°F) [RH = 82%]
Pressure (altimeter): 30.09 inches Hg (1019.0 mb)
Winds: from the ESE (110 degrees) at 7 MPH (6 knots; 3.1 m/s)
gusting to 18 MPH (16 knots; 8.2 m/s)
Visibility: 5 miles ( 8 km)
Ceiling: 10000 feet AGL
Clouds: few clouds at 800 feet AGL
few clouds at 2500 feet AGL
scattered clouds at 3000 feet AGL
broken clouds at 10000 feet AGL
Weather: no significant weather observed at this time

 AIRPORT MAP

 RUNWAY INFORMATION
Runway 02 Runway length 10007 ft Runway width 148 ft
Runway elevation 4313 ft Runway displaced threshold 0 ft Runway heading 22
Runway 20 Runway length 10007 ft Runway width 148 ft
Runway elevation 4387 ft Runway displaced threshold 400 ft Runway heading 202

 AIRPORT FREQUENCIES
Type APP Name KATHMANDU Frequency 120.6 MHZ
Type ATIS Name KATHMANDU Frequency 112.3 MHZ
Type GND Name KATHMANDU Frequency 121.9 MHZ
Type RDO Name KATHMANDU Frequency 292.3 MHZ
Type TWR Name KATHMANDU Frequency 118.1 MHZ

 AIRPORT NEAR NAVIGATION AIDS
Type NDB Name Kathmandu Frequency 318 KHZ
Type VOR-DME Name Kathmandu Frequency 112300 KHZ
Type NDB Name Nalinchowk Frequency 252 KHZ



Powered by Virtual Airlines Manager [v2.6.2]